Time;durP1;ratioP1;P1;durP2;ratioP2;P2;SDS_P1;SDS_P2;PMS_P1;PMS_P2;Temp;Humidity;BMP_temperature;BMP_pressure;BME280_temperature;BME280_humidity;BME280_pressure;Samples;Min_cycle;Max_cycle;Signal;HPM_P1;HPM_P2
2020/12/04 00:00:36;;;;;;;22.27;14.27;;;;;;;4.63;57.52;94330.06;5073759;28;20277;-67
2020/12/04 00:03:02;;;;;;;21.53;14.70;;;;;;;4.52;58.50;94316.59;5039067;28;20193;-68
2020/12/04 00:05:28;;;;;;;21.73;13.50;;;;;;;4.41;58.23;94291.97;5067902;28;20186;-69
2020/12/04 00:07:54;;;;;;;22.97;13.80;;;;;;;4.38;59.65;94281.16;5070135;28;20478;-68
2020/12/04 00:10:19;;;;;;;20.30;13.53;;;;;;;4.52;58.23;94298.44;5067598;28;20213;-68
2020/12/04 00:12:45;;;;;;;25.33;14.13;;;;;;;4.28;58.37;94292.66;5072586;28;20183;-69
2020/12/04 00:15:11;;;;;;;21.93;14.20;;;;;;;4.41;58.00;94279.00;5070720;28;20189;-69
2020/12/04 00:17:37;;;;;;;22.13;13.87;;;;;;;4.58;57.46;94295.13;5062799;28;20203;-69
2020/12/04 00:20:04;;;;;;;23.07;14.80;;;;;;;4.65;57.11;94295.19;5069203;28;20186;-68
2020/12/04 00:22:30;;;;;;;21.77;14.37;;;;;;;4.46;56.95;94278.47;5058408;28;20187;-69
2020/12/04 00:24:56;;;;;;;22.70;14.03;;;;;;;3.99;59.01;94272.81;5069844;28;20923;-69
2020/12/04 00:27:22;;;;;;;21.80;14.50;;;;;;;4.33;57.50;94293.91;5070085;28;20332;-68
2020/12/04 00:29:48;;;;;;;21.60;13.83;;;;;;;4.33;58.38;94273.16;5070895;28;20452;-69
2020/12/04 00:32:13;;;;;;;21.40;13.93;;;;;;;4.44;57.29;94291.59;5077967;28;20179;-69
2020/12/04 00:34:39;;;;;;;24.67;15.50;;;;;;;4.29;58.24;94280.47;5067375;28;20188;-68
2020/12/04 00:37:05;;;;;;;22.87;14.70;;;;;;;4.45;57.58;94272.47;5071716;28;20572;-69
2020/12/04 00:39:30;;;;;;;21.67;13.80;;;;;;;4.56;57.22;94270.34;5070467;28;20209;-69
2020/12/04 00:41:59;;;;;;;23.47;14.63;;;;;;;4.34;57.49;94261.81;5062779;28;20646;-69
2020/12/04 00:44:25;;;;;;;22.07;13.70;;;;;;;4.51;57.07;94251.97;5068737;28;20186;-67
2020/12/04 00:46:51;;;;;;;24.70;15.10;;;;;;;4.50;57.62;94251.16;5062884;28;21006;-69
2020/12/04 00:49:17;;;;;;;24.07;14.13;;;;;;;4.51;57.07;94250.16;5070094;28;20559;-69
2020/12/04 00:51:43;;;;;;;20.37;14.07;;;;;;;4.49;57.21;94228.78;5057066;28;20282;-69
2020/12/04 00:54:09;;;;;;;23.40;14.53;;;;;;;4.60;57.19;94237.88;5067008;28;20833;-69
2020/12/04 00:56:34;;;;;;;24.07;14.63;;;;;;;4.29;57.87;94219.06;5066154;28;20233;-69
2020/12/04 00:59:00;;;;;;;25.30;14.87;;;;;;;4.43;57.76;94227.75;5063918;28;20206;-70
2020/12/04 01:01:28;;;;;;;21.07;13.57;;;;;;;4.57;56.82;94228.69;5067122;28;20265;-71
2020/12/04 01:03:54;;;;;;;22.43;13.83;;;;;;;4.42;57.73;94220.97;5065857;28;20918;-71
2020/12/04 01:06:20;;;;;;;22.13;13.57;;;;;;;4.29;57.01;94232.03;5053892;28;20420;-68
2020/12/04 01:08:46;;;;;;;20.63;14.30;;;;;;;4.36;56.58;94207.94;5064557;28;20457;-68
2020/12/04 01:11:12;;;;;;;23.23;14.30;;;;;;;4.21;58.35;94205.44;5070183;28;20837;-69
2020/12/04 01:13:38;;;;;;;21.03;13.77;;;;;;;4.27;57.17;94209.88;5071807;28;20490;-70
2020/12/04 01:16:07;;;;;;;20.40;12.97;;;;;;;4.32;57.83;94197.16;5045136;28;20955;-68
2020/12/04 01:18:33;;;;;;;21.33;13.80;;;;;;;4.28;58.45;94193.34;5045126;28;20607;-68
2020/12/04 01:20:59;;;;;;;23.10;14.53;;;;;;;4.35;57.87;94191.59;5048526;28;20436;-68
2020/12/04 01:23:24;;;;;;;27.67;14.07;;;;;;;4.37;57.25;94200.00;5046905;28;20664;-69
2020/12/04 01:25:50;;;;;;;22.00;14.30;;;;;;;4.42;57.42;94199.44;5047641;28;20194;-68
2020/12/04 01:28:16;;;;;;;21.40;13.73;;;;;;;4.44;57.32;94219.00;5049273;28;20225;-68
2020/12/04 01:30:41;;;;;;;22.83;13.60;;;;;;;4.58;56.70;94224.28;5046132;28;20647;-69
2020/12/04 01:33:07;;;;;;;21.87;14.03;;;;;;;4.63;56.56;94198.59;5047983;28;20178;-68
2020/12/04 01:35:33;;;;;;;22.60;13.83;;;;;;;4.67;56.28;94204.19;5044782;28;20679;-68
2020/12/04 01:37:58;;;;;;;22.27;13.30;;;;;;;4.56;56.88;94192.53;5049374;28;20194;-69
2020/12/04 01:40:24;;;;;;;19.17;12.80;;;;;;;4.51;57.29;94202.69;5045432;28;20300;-68
2020/12/04 01:42:50;;;;;;;26.80;14.60;;;;;;;4.51;57.29;94171.56;5047594;28;20194;-69
2020/12/04 01:45:16;;;;;;;22.93;14.30;;;;;;;4.31;57.94;94190.34;5049818;28;20217;-68
2020/12/04 01:47:41;;;;;;;21.10;13.30;;;;;;;4.36;57.28;94177.66;5051831;28;20302;-68
2020/12/04 01:50:07;;;;;;;23.27;13.83;;;;;;;4.44;57.27;94171.53;5062856;28;20202;-68
2020/12/04 01:52:33;;;;;;;24.50;14.83;;;;;;;4.25;57.55;94178.16;5055556;28;20199;-67
2020/12/04 01:54:59;;;;;;;27.37;14.40;;;;;;;4.38;57.38;94162.72;5067118;28;20273;-66
2020/12/04 01:57:28;;;;;;;27.67;15.30;;;;;;;4.08;58.28;94165.44;5078531;28;20233;-69
2020/12/04 01:59:53;;;;;;;21.37;14.00;;;;;;;4.27;57.96;94165.81;5075471;28;20835;-69
2020/12/04 02:02:21;;;;;;;22.67;15.33;;;;;;;4.13;58.41;94150.16;5055671;28;20449;-68
2020/12/04 02:04:48;;;;;;;23.57;15.00;;;;;;;4.18;57.32;94143.59;5047684;28;20271;-68
2020/12/04 02:07:18;;;;;;;27.40;15.60;;;;;;;4.27;57.85;94137.31;5071207;28;20547;-68
2020/12/04 02:09:48;;;;;;;25.93;14.77;;;;;;;4.28;58.23;94144.88;5071389;28;20800;-68
2020/12/04 02:12:16;;;;;;;23.50;14.70;;;;;;;4.32;57.79;94147.88;5057266;28;20474;-69
2020/12/04 02:14:42;;;;;;;29.90;15.47;;;;;;;4.32;57.62;94142.69;5074788;28;20455;-69
2020/12/04 02:17:08;;;;;;;20.93;13.83;;;;;;;4.40;56.59;94140.00;5075037;28;20436;-69
2020/12/04 02:19:42;;;;;;;24.60;14.60;;;;;;;4.41;57.47;94136.38;5074651;28;20419;-69
2020/12/04 02:22:10;;;;;;;25.27;14.60;;;;;;;4.46;56.93;94123.66;5068250;28;20285;-68
2020/12/04 02:24:38;;;;;;;22.27;14.40;;;;;;;4.55;56.81;94121.72;5074938;28;20413;-68
2020/12/04 02:27:04;;;;;;;22.57;14.30;;;;;;;4.54;56.58;94114.94;5074780;28;20823;-68
2020/12/04 02:29:30;;;;;;;24.97;15.30;;;;;;;4.52;56.81;94110.94;5074763;28;20456;-68
2020/12/04 02:31:55;;;;;;;23.47;14.73;;;;;;;4.52;56.65;94113.53;5074067;28;20190;-69
2020/12/04 02:34:21;;;;;;;23.20;14.07;;;;;;;4.56;56.98;94110.38;5074584;28;20473;-68
2020/12/04 02:36:47;;;;;;;25.57;14.27;;;;;;;4.57;56.63;94113.75;5057971;28;20661;-68
2020/12/04 02:39:13;;;;;;;20.90;13.90;;;;;;;4.53;56.83;94105.56;5074403;28;20190;-68
2020/12/04 02:41:45;;;;;;;22.53;14.30;;;;;;;4.56;56.45;94112.97;5073372;28;20178;-69
2020/12/04 02:44:11;;;;;;;24.10;14.97;;;;;;;4.48;56.19;94110.50;5074705;28;20436;-70
2020/12/04 02:46:38;;;;;;;26.87;15.07;;;;;;;4.46;56.61;94110.69;5074549;28;20440;-67
2020/12/04 02:49:04;;;;;;;26.23;15.60;;;;;;;4.42;56.38;94106.88;5073758;28;20853;-69
2020/12/04 02:51:29;;;;;;;26.07;15.13;;;;;;;4.51;56.74;94104.16;5061655;28;20429;-69
2020/12/04 02:53:55;;;;;;;26.57;15.10;;;;;;;4.54;56.47;94108.94;5073282;28;20427;-68
2020/12/04 02:56:21;;;;;;;21.13;13.60;;;;;;;4.55;56.62;94107.94;5074478;28;20319;-68
2020/12/04 02:58:46;;;;;;;25.37;15.70;;;;;;;4.41;56.56;94099.28;5074421;28;20214;-69
2020/12/04 03:01:12;;;;;;;22.93;14.50;;;;;;;4.27;57.18;94103.59;5074327;28;20182;-69
2020/12/04 03:03:38;;;;;;;23.13;14.57;;;;;;;4.37;57.08;94096.28;5074665;28;20179;-69
2020/12/04 03:06:03;;;;;;;22.87;13.67;;;;;;;4.32;56.58;94100.44;5073911;28;20194;-69
2020/12/04 03:08:29;;;;;;;25.47;15.23;;;;;;;4.31;56.60;94089.25;5061437;28;20211;-69
2020/12/04 03:10:56;;;;;;;21.43;13.80;;;;;;;4.39;56.45;94088.31;5070801;28;20600;-69
2020/12/04 03:13:22;;;;;;;23.10;13.50;;;;;;;4.38;56.60;94087.53;5072818;28;20186;-69
2020/12/04 03:15:48;;;;;;;23.67;14.00;;;;;;;4.39;56.98;94086.53;5074471;28;20793;-69
2020/12/04 03:18:14;;;;;;;21.70;13.47;;;;;;;4.43;56.46;94086.94;5073695;28;20444;-68
2020/12/04 03:20:39;;;;;;;22.90;13.90;;;;;;;4.55;56.31;94076.81;5062984;28;20187;-69
2020/12/04 03:23:05;;;;;;;21.63;13.43;;;;;;;4.57;55.51;94082.63;5073565;28;20642;-69
2020/12/04 03:25:31;;;;;;;19.87;13.10;;;;;;;4.43;56.02;94074.75;5073890;28;20248;-69
2020/12/04 03:27:56;;;;;;;19.90;13.30;;;;;;;4.37;56.27;94078.13;5073307;28;20206;-68
2020/12/04 03:30:22;;;;;;;19.00;13.10;;;;;;;4.56;55.37;94089.63;5072700;28;20214;-69
2020/12/04 03:32:48;;;;;;;18.57;12.00;;;;;;;4.41;56.05;94089.72;5073376;28;20277;-69
2020/12/04 03:35:13;;;;;;;18.73;12.43;;;;;;;4.54;56.00;94101.16;5074729;28;20646;-70
2020/12/04 03:37:39;;;;;;;18.03;11.00;;;;;;;4.55;55.61;94098.38;5074694;28;20199;-69
2020/12/04 03:40:05;;;;;;;16.73;11.23;;;;;;;4.48;56.01;94131.25;5074307;28;20209;-69
2020/12/04 03:42:31;;;;;;;18.80;11.53;;;;;;;3.80;58.65;94124.75;5074163;28;20182;-67
2020/12/04 03:44:56;;;;;;;20.37;12.70;;;;;;;3.51;59.83;94143.78;5073219;28;20248;-69
2020/12/04 03:47:22;;;;;;;18.07;11.17;;;;;;;3.63;59.55;94134.53;5073221;28;20205;-67
2020/12/04 03:49:48;;;;;;;39.30;16.00;;;;;;;3.91;58.48;94125.22;5073871;28;20213;-69
2020/12/04 03:52:13;;;;;;;127.33;28.10;;;;;;;4.10;56.96;94114.22;5061102;28;20186;-68
2020/12/04 03:54:39;;;;;;;40.53;13.93;;;;;;;4.14;57.53;94125.84;5075372;28;20246;-69
2020/12/04 03:57:05;;;;;;;23.20;12.30;;;;;;;4.53;56.51;94123.69;5081698;28;20185;-70
2020/12/04 03:59:30;;;;;;;28.70;13.33;;;;;;;4.58;55.70;94117.94;5075982;28;20293;-69
2020/12/04 04:01:56;;;;;;;23.97;12.30;;;;;;;4.76;55.57;94113.06;5074308;28;20186;-69
2020/12/04 04:04:22;;;;;;;26.80;12.90;;;;;;;4.88;55.36;94105.53;5063037;28;20180;-68
2020/12/04 04:06:48;;;;;;;23.03;11.77;;;;;;;4.96;54.89;94098.59;5068391;28;20938;-68
2020/12/04 04:09:13;;;;;;;19.50;11.83;;;;;;;5.01;54.61;94102.22;5049177;28;20206;-69
2020/12/04 04:11:39;;;;;;;23.20;11.87;;;;;;;5.10;54.78;94102.03;5072021;28;20265;-70
2020/12/04 04:14:05;;;;;;;18.93;11.13;;;;;;;5.10;54.17;94102.03;5072062;28;20763;-69
2020/12/04 04:16:30;;;;;;;22.17;12.93;;;;;;;5.03;54.98;94095.03;5062968;28;20220;-69
2020/12/04 04:18:56;;;;;;;18.70;11.57;;;;;;;5.06;55.16;94093.84;5072125;28;20285;-70
2020/12/04 04:21:22;;;;;;;20.87;12.40;;;;;;;5.10;54.39;94105.44;5073178;28;20200;-69
2020/12/04 04:23:48;;;;;;;19.10;12.43;;;;;;;5.05;53.94;94102.63;5072896;28;20220;-68
2020/12/04 04:26:13;;;;;;;19.20;11.50;;;;;;;5.15;54.37;94107.44;5072170;28;20183;-69
2020/12/04 04:28:40;;;;;;;18.20;11.97;;;;;;;5.21;53.88;94109.25;5073777;28;20245;-68
2020/12/04 04:31:07;;;;;;;21.70;12.00;;;;;;;5.10;53.38;94107.22;5071541;28;20187;-68
2020/12/04 04:33:33;;;;;;;19.63;12.03;;;;;;;5.21;53.53;94110.06;5072302;28;20638;-68
2020/12/04 04:35:59;;;;;;;23.67;13.33;;;;;;;4.96;54.25;94117.53;5073620;28;20563;-69
2020/12/04 04:38:24;;;;;;;23.17;13.73;;;;;;;4.93;54.30;94128.31;5069919;28;20211;-68
2020/12/04 04:40:56;;;;;;;23.53;13.43;;;;;;;4.85;55.33;94134.44;5068936;28;20668;-68
2020/12/04 04:43:23;;;;;;;21.03;13.17;;;;;;;4.96;54.36;94135.72;5073333;28;20590;-68
2020/12/04 04:45:49;;;;;;;22.00;12.70;;;;;;;5.05;53.84;94137.13;5077064;28;20448;-69
2020/12/04 04:48:24;;;;;;;19.50;12.10;;;;;;;4.75;54.80;94134.00;5078132;28;20436;-68
2020/12/04 04:50:58;;;;;;;24.83;12.90;;;;;;;4.55;55.88;94141.66;5072230;28;20239;-69
2020/12/04 04:53:25;;;;;;;21.83;12.00;;;;;;;4.41;56.02;94151.16;5072595;28;20514;-69
2020/12/04 04:55:55;;;;;;;20.27;12.50;;;;;;;4.88;55.69;94141.84;5071764;28;20436;-68
2020/12/04 04:58:20;;;;;;;20.37;11.90;;;;;;;4.80;55.70;94128.22;5072257;28;20436;-69
2020/12/04 05:00:46;;;;;;;20.27;12.60;;;;;;;5.06;55.29;94123.19;5072768;28;20429;-68
2020/12/04 05:03:12;;;;;;;21.40;12.80;;;;;;;5.18;55.32;94125.22;5072083;28;20561;-70
2020/12/04 05:05:45;;;;;;;28.10;14.73;;;;;;;5.29;54.23;94116.88;5073535;28;20186;-68
2020/12/04 05:08:15;;;;;;;27.23;13.70;;;;;;;5.35;53.88;94121.28;5056943;28;20292;-69
2020/12/04 05:10:43;;;;;;;26.47;16.17;;;;;;;5.33;53.08;94132.88;5065637;28;20420;-69
2020/12/04 05:13:09;;;;;;;31.00;18.43;;;;;;;5.33;53.17;94123.28;5073474;28;20440;-69
2020/12/04 05:15:35;;;;;;;35.23;17.70;;;;;;;5.50;52.40;94130.72;5073186;28;20470;-68
2020/12/04 05:18:14;;;;;;;32.73;19.13;;;;;;;5.55;52.75;94120.53;5072983;28;20440;-69
2020/12/04 05:20:46;;;;;;;28.50;17.03;;;;;;;5.62;52.94;94112.75;5073232;28;20454;-68
2020/12/04 05:23:12;;;;;;;27.67;16.80;;;;;;;5.53;52.74;94101.75;5056603;28;20993;-70
2020/12/04 05:25:39;;;;;;;26.43;15.50;;;;;;;5.57;52.99;94091.78;5072217;28;20417;-69
2020/12/04 05:28:15;;;;;;;25.10;14.30;;;;;;;5.59;52.81;94085.38;5071543;28;20313;-69
2020/12/04 05:30:44;;;;;;;17.40;11.40;;;;;;;5.53;52.72;94076.56;5073471;28;20437;-68
2020/12/04 05:33:11;;;;;;;16.00;11.07;;;;;;;5.66;52.54;94065.41;5057869;28;20795;-69
2020/12/04 05:35:37;;;;;;;19.90;11.90;;;;;;;5.68;52.06;94079.00;5073871;28;20512;-70
2020/12/04 05:38:11;;;;;;;14.53;10.10;;;;;;;5.51;52.89;94075.19;5075297;28;20443;-69
2020/12/04 05:40:39;;;;;;;17.10;10.77;;;;;;;5.71;52.28;94066.59;5067491;28;20491;-68
2020/12/04 05:43:05;;;;;;;22.53;12.67;;;;;;;5.78;52.67;94078.59;5075090;28;20457;-68
2020/12/04 05:45:32;;;;;;;16.50;10.07;;;;;;;5.72;52.35;94087.22;5076421;28;20460;-69
2020/12/04 05:47:57;;;;;;;18.93;10.00;;;;;;;5.77;52.28;94081.41;5075619;28;21020;-69
2020/12/04 05:50:23;;;;;;;13.13;9.00;;;;;;;5.71;52.24;94102.97;5060169;28;20457;-68
2020/12/04 05:52:50;;;;;;;12.60;8.60;;;;;;;5.67;52.30;94095.56;5075656;28;20424;-69
2020/12/04 05:55:16;;;;;;;17.97;9.47;;;;;;;5.72;52.43;94094.19;5076492;28;20413;-69
2020/12/04 05:57:55;;;;;;;15.30;9.17;;;;;;;5.67;52.51;94090.38;5076919;28;20446;-68
2020/12/04 06:00:21;;;;;;;13.93;8.37;;;;;;;5.56;52.30;94077.19;5069378;28;20420;-68
2020/12/04 06:03:01;;;;;;;13.50;8.80;;;;;;;5.58;52.47;94073.38;5076264;28;20428;-67
2020/12/04 06:05:28;;;;;;;24.80;9.10;;;;;;;5.51;52.70;94082.97;5076346;28;20574;-68
2020/12/04 06:08:00;;;;;;;16.40;10.43;;;;;;;5.44;53.31;94066.56;5075949;28;20535;-69
2020/12/04 06:10:27;;;;;;;16.27;10.43;;;;;;;5.57;53.29;94073.59;5045846;28;20456;-68
2020/12/04 06:12:53;;;;;;;18.10;10.33;;;;;;;5.49;53.68;94059.00;5076688;28;20432;-68
2020/12/04 06:15:26;;;;;;;16.87;10.40;;;;;;;5.32;54.14;94063.75;5075986;28;20840;-69
2020/12/04 06:18:04;;;;;;;16.70;10.53;;;;;;;5.19;54.93;94067.91;5057988;28;20206;-69
2020/12/04 06:20:46;;;;;;;15.20;10.33;;;;;;;5.31;54.52;94068.13;5067338;28;20450;-69
2020/12/04 06:23:16;;;;;;;20.07;11.63;;;;;;;5.15;54.79;94074.50;5065324;28;20456;-68
2020/12/04 06:25:51;;;;;;;19.40;11.97;;;;;;;5.22;55.55;94066.72;5076017;28;20429;-69
2020/12/04 06:28:20;;;;;;;20.50;11.30;;;;;;;5.25;54.82;94070.72;5071267;28;20808;-68
2020/12/04 06:31:00;;;;;;;20.93;11.80;;;;;;;5.27;55.24;94060.94;5075030;28;20857;-68
2020/12/04 06:33:38;;;;;;;20.83;11.40;;;;;;;5.28;54.75;94067.72;5074752;28;20431;-69
2020/12/04 06:36:06;;;;;;;20.97;12.10;;;;;;;5.19;55.48;94065.31;5078016;28;20515;-70
2020/12/04 06:38:35;;;;;;;21.00;12.10;;;;;;;5.18;55.25;94052.53;5077091;28;20451;-70
2020/12/04 06:41:20;;;;;;;24.93;12.50;;;;;;;5.06;55.33;94049.72;5076324;28;20479;-67
2020/12/04 06:43:48;;;;;;;23.57;12.37;;;;;;;4.92;55.59;94064.41;5078479;28;20914;-67
2020/12/04 06:46:29;;;;;;;20.87;13.77;;;;;;;5.10;54.90;94050.94;5078725;28;21214;-67
2020/12/04 06:49:45;;;;;;;25.13;14.93;;;;;;;4.90;55.49;94035.28;5065774;28;20503;-68
2020/12/04 06:52:17;;;;;;;28.10;13.70;;;;;;;5.02;55.41;94036.31;5050597;28;20436;-70
2020/12/04 06:54:46;;;;;;;28.33;14.40;;;;;;;5.02;55.29;94057.09;5076026;28;20423;-68
2020/12/04 06:57:12;;;;;;;27.23;14.30;;;;;;;4.99;55.86;94054.88;5058822;28;20444;-69
2020/12/04 06:59:40;;;;;;;26.47;15.23;;;;;;;5.05;55.95;94077.44;5041265;28;20421;-68
2020/12/04 07:02:09;;;;;;;23.67;14.30;;;;;;;5.18;55.92;94083.69;5072558;28;20426;-68
2020/12/04 07:04:37;;;;;;;23.30;13.83;;;;;;;5.12;56.40;94082.66;5054124;28;20420;-68
2020/12/04 07:07:11;;;;;;;21.10;14.10;;;;;;;5.12;56.24;94080.06;5058326;28;20421;-70
2020/12/04 07:09:39;;;;;;;22.17;13.90;;;;;;;5.13;55.45;94075.69;5054919;28;20893;-70
2020/12/04 07:12:05;;;;;;;27.33;14.10;;;;;;;5.19;55.93;94080.09;5072741;28;20587;-69
2020/12/04 07:14:31;;;;;;;18.00;12.13;;;;;;;5.28;56.11;94080.72;5063077;28;20951;-68
2020/12/04 07:16:57;;;;;;;21.80;12.87;;;;;;;5.18;56.01;94062.91;5064699;28;20190;-68
2020/12/04 07:19:23;;;;;;;18.07;12.07;;;;;;;5.19;55.96;94057.53;5057297;28;20524;-67
2020/12/04 07:21:50;;;;;;;18.93;11.57;;;;;;;5.35;55.55;94053.78;5080053;28;20449;-68
2020/12/04 07:24:16;;;;;;;17.37;11.10;;;;;;;5.34;55.08;94046.97;5071310;28;20489;-69
2020/12/04 07:27:00;;;;;;;20.03;11.80;;;;;;;5.38;55.11;94045.59;5071598;28;20455;-68
2020/12/04 07:29:26;;;;;;;23.00;12.20;;;;;;;5.45;54.49;94031.81;5069341;28;20221;-68
2020/12/04 07:31:53;;;;;;;19.07;11.77;;;;;;;5.42;54.98;94043.41;5069594;28;20409;-69
2020/12/04 07:34:21;;;;;;;20.53;11.73;;;;;;;5.37;55.23;94050.97;5070654;28;20182;-67
2020/12/04 07:36:49;;;;;;;22.87;13.10;;;;;;;5.44;55.07;94064.78;5076867;28;20424;-68
2020/12/04 07:39:25;;;;;;;16.53;11.53;;;;;;;5.60;54.64;94050.63;5077768;28;20601;-68
2020/12/04 07:41:51;;;;;;;24.70;12.83;;;;;;;5.62;54.54;94051.22;5077189;28;20470;-67
2020/12/04 07:44:17;;;;;;;20.00;12.57;;;;;;;5.64;54.06;94043.22;5069853;28;20417;-69
2020/12/04 07:46:43;;;;;;;27.10;14.17;;;;;;;5.72;54.34;94037.84;5068586;28;20221;-69
2020/12/04 07:49:11;;;;;;;20.57;13.27;;;;;;;5.71;54.27;94040.63;5044018;28;20456;-67
2020/12/04 07:51:41;;;;;;;20.33;12.33;;;;;;;5.66;53.83;94033.44;5075616;28;20428;-68
2020/12/04 07:54:21;;;;;;;21.37;13.03;;;;;;;5.66;54.36;94049.84;5075190;28;20420;-69
2020/12/04 07:56:59;;;;;;;24.37;13.70;;;;;;;5.48;54.59;94073.75;5074551;28;20412;-68
2020/12/04 07:59:28;;;;;;;21.20;12.83;;;;;;;5.55;53.73;94047.78;5075316;28;20474;-68
2020/12/04 08:01:54;;;;;;;18.40;11.03;;;;;;;5.61;54.64;94044.41;5074544;28;20448;-70
2020/12/04 08:04:20;;;;;;;22.37;12.43;;;;;;;5.68;53.51;94042.63;5074939;28;20427;-69
2020/12/04 08:06:47;;;;;;;18.57;11.83;;;;;;;5.69;53.75;94049.41;5071019;28;20420;-68
2020/12/04 08:09:17;;;;;;;25.50;11.37;;;;;;;5.66;54.01;94029.03;5071608;28;20319;-71
2020/12/04 08:11:54;;;;;;;21.20;12.70;;;;;;;5.84;53.87;94035.44;5073870;28;20424;-68
2020/12/04 08:14:24;;;;;;;21.60;12.30;;;;;;;5.97;53.00;94019.03;5061579;28;21039;-68
2020/12/04 08:16:57;;;;;;;18.70;12.50;;;;;;;6.07;53.20;94014.25;5073344;28;20419;-68
2020/12/04 08:19:31;;;;;;;17.87;11.13;;;;;;;5.97;52.66;94014.63;5055594;28;20423;-68
2020/12/04 08:22:07;;;;;;;18.63;11.60;;;;;;;6.17;52.51;94008.66;5073638;28;20409;-68
2020/12/04 08:24:39;;;;;;;18.77;11.47;;;;;;;6.12;52.55;94013.66;5052997;28;20422;-68
2020/12/04 08:27:13;;;;;;;16.30;11.60;;;;;;;6.02;51.97;93990.66;5074309;28;20449;-67
2020/12/04 08:29:41;;;;;;;22.20;12.00;;;;;;;6.13;52.04;93976.25;5065516;28;20809;-68
2020/12/04 08:32:09;;;;;;;18.00;11.20;;;;;;;6.24;51.73;93983.41;5074142;28;20420;-68
2020/12/04 08:34:35;;;;;;;20.73;11.13;;;;;;;6.29;51.91;93973.22;5075054;28;20425;-68
2020/12/04 08:37:06;;;;;;;18.93;12.00;;;;;;;6.40;51.71;93976.19;5059723;28;20819;-68
2020/12/04 08:39:39;;;;;;;18.67;12.10;;;;;;;6.51;51.11;93957.34;5062653;28;20416;-67
2020/12/04 08:42:29;;;;;;;16.30;11.33;;;;;;;6.58;50.73;93972.91;5072848;28;20428;-68
2020/12/04 08:45:09;;;;;;;18.37;11.20;;;;;;;6.71;50.42;93969.44;5074671;28;21038;-68
2020/12/04 08:47:44;;;;;;;17.23;10.63;;;;;;;6.67;50.43;93970.88;5075097;28;20491;-68
2020/12/04 08:50:17;;;;;;;16.20;11.30;;;;;;;6.57;50.15;93972.09;5049846;28;20512;-67
2020/12/04 08:52:52;;;;;;;20.20;11.97;;;;;;;6.68;50.49;93980.28;5073917;28;20947;-68
2020/12/04 08:55:26;;;;;;;24.23;13.80;;;;;;;6.65;50.59;93986.69;5075382;28;20767;-68
2020/12/04 08:57:53;;;;;;;26.63;15.60;;;;;;;6.58;50.43;93991.13;5073091;28;20436;-67
2020/12/04 09:00:21;;;;;;;23.47;14.67;;;;;;;6.62;50.78;93997.50;5067517;28;20442;-68
2020/12/04 09:02:47;;;;;;;25.27;13.90;;;;;;;6.71;50.94;94003.28;5072343;28;20844;-67
2020/12/04 09:05:17;;;;;;;27.70;14.47;;;;;;;6.54;51.95;94008.13;5068284;28;20421;-68
2020/12/04 09:07:44;;;;;;;27.23;14.37;;;;;;;6.51;51.63;94001.56;5048129;28;20460;-68
2020/12/04 09:10:12;;;;;;;24.10;13.93;;;;;;;6.49;52.46;94016.56;5057196;28;20514;-68
2020/12/04 09:12:39;;;;;;;29.70;14.37;;;;;;;6.56;52.71;94024.34;5049964;28;20430;-68
2020/12/04 09:15:06;;;;;;;20.77;13.40;;;;;;;6.67;52.25;94023.72;5050496;28;20461;-68
2020/12/04 09:17:32;;;;;;;17.00;11.97;;;;;;;6.74;51.61;94034.09;5048756;28;20480;-69
2020/12/04 09:19:58;;;;;;;19.40;12.47;;;;;;;6.72;51.56;94036.91;5064888;28;20823;-68
2020/12/04 09:22:24;;;;;;;17.77;10.43;;;;;;;6.58;51.84;94033.53;5062924;28;20180;-68
2020/12/04 09:24:50;;;;;;;16.57;9.80;;;;;;;6.51;51.25;94024.97;5065398;28;20209;-68
2020/12/04 09:27:15;;;;;;;20.63;9.60;;;;;;;6.80;50.30;94017.66;5066065;28;20420;-68
2020/12/04 09:29:42;;;;;;;15.37;8.63;;;;;;;7.16;49.28;94005.88;5061464;28;20545;-67
2020/12/04 09:32:16;;;;;;;11.57;7.80;;;;;;;7.09;48.77;93999.88;5056336;28;20182;-69
2020/12/04 09:34:43;;;;;;;13.33;8.53;;;;;;;7.17;49.01;93998.84;5051426;28;20458;-69
2020/12/04 09:37:23;;;;;;;15.60;8.83;;;;;;;7.03;49.83;93985.13;5052280;28;20462;-68
2020/12/04 09:39:54;;;;;;;17.87;10.10;;;;;;;7.20;49.91;93988.81;5060535;28;20470;-66
2020/12/04 09:42:21;;;;;;;21.70;10.57;;;;;;;7.37;49.71;93985.72;5063180;28;20429;-69
2020/12/04 09:44:48;;;;;;;19.00;12.10;;;;;;;7.33;50.03;93977.53;5068714;28;20428;-69
2020/12/04 09:47:14;;;;;;;19.20;11.17;;;;;;;7.30;49.94;93979.75;5075637;28;20474;-69
2020/12/04 09:49:40;;;;;;;16.10;11.47;;;;;;;7.39;49.54;93973.28;5068628;28;20456;-69
2020/12/04 09:52:06;;;;;;;20.13;11.87;;;;;;;7.22;49.97;93968.56;5070142;28;20433;-68
2020/12/04 09:54:35;;;;;;;24.60;12.07;;;;;;;7.12;51.15;93964.84;5068178;28;20447;-69
2020/12/04 09:57:02;;;;;;;31.67;13.20;;;;;;;6.96;51.88;93955.69;5075925;28;20421;-68
2020/12/04 09:59:27;;;;;;;28.03;13.13;;;;;;;7.00;51.53;93957.69;5067572;28;20468;-67
2020/12/04 10:01:53;;;;;;;39.20;13.17;;;;;;;7.04;51.83;93955.47;5072225;28;20942;-67
2020/12/04 10:04:20;;;;;;;21.67;14.00;;;;;;;7.27;50.75;93969.75;5076539;28;20206;-68
2020/12/04 10:06:46;;;;;;;23.50;13.37;;;;;;;7.31;50.25;93965.72;5075817;28;20524;-68
2020/12/04 10:09:14;;;;;;;20.83;12.33;;;;;;;7.13;50.77;93969.84;5075514;28;20448;-68
2020/12/04 10:11:40;;;;;;;26.20;13.27;;;;;;;7.10;49.78;93982.47;5071992;28;20432;-67
2020/12/04 10:14:06;;;;;;;21.63;13.00;;;;;;;7.13;49.39;93980.25;5076909;28;20502;-67
2020/12/04 10:16:33;;;;;;;25.93;13.47;;;;;;;7.33;49.26;93979.31;5070091;28;20492;-67
2020/12/04 10:18:59;;;;;;;19.67;11.60;;;;;;;7.14;49.10;93989.66;5073816;28;20541;-67
2020/12/04 10:21:25;;;;;;;22.90;13.50;;;;;;;7.07;49.40;94012.31;5076148;28;20433;-67
2020/12/04 10:23:53;;;;;;;28.17;12.23;;;;;;;6.89;49.59;94011.22;5079654;28;20424;-67
2020/12/04 10:26:19;;;;;;;25.90;13.00;;;;;;;7.11;49.03;94004.91;5080724;28;20413;-67
2020/12/04 10:28:45;;;;;;;27.00;13.40;;;;;;;7.11;49.94;93995.28;5072417;28;20823;-66
2020/12/04 10:31:10;;;;;;;25.43;12.80;;;;;;;7.02;50.22;93992.13;5063109;28;20499;-67
2020/12/04 10:33:36;;;;;;;24.50;12.90;;;;;;;7.17;49.59;93983.22;5074421;28;20175;-69
2020/12/04 10:36:02;;;;;;;31.37;13.57;;;;;;;7.18;49.39;93977.78;5078582;28;20179;-67
2020/12/04 10:38:28;;;;;;;42.67;13.83;;;;;;;6.84;50.91;93987.59;5079063;28;20209;-67
2020/12/04 10:40:54;;;;;;;26.30;13.13;;;;;;;6.13;52.80;93973.66;5079746;28;20520;-67
2020/12/04 10:43:20;;;;;;;28.83;14.60;;;;;;;6.68;51.27;94006.31;5056639;28;20506;-68
2020/12/04 10:45:47;;;;;;;21.67;13.80;;;;;;;6.71;51.37;94014.50;5078295;28;20190;-68
2020/12/04 10:48:12;;;;;;;23.30;13.30;;;;;;;6.51;51.83;93982.53;5084289;28;20433;-67
2020/12/04 10:50:38;;;;;;;26.00;13.27;;;;;;;6.85;51.04;93983.22;5078601;28;21097;-68
2020/12/04 10:53:04;;;;;;;32.23;13.40;;;;;;;6.01;53.38;93978.66;5076260;28;20182;-66
2020/12/04 10:55:29;;;;;;;39.17;14.63;;;;;;;6.48;52.51;93982.97;5080430;28;20170;-68
2020/12/04 10:57:55;;;;;;;28.53;14.93;;;;;;;5.62;54.91;93994.06;5075854;28;20238;-66
2020/12/04 11:00:21;;;;;;;27.97;15.50;;;;;;;6.18;53.86;94020.63;5061378;28;20194;-67
2020/12/04 11:02:48;;;;;;;35.73;13.73;;;;;;;5.67;55.22;93976.06;5076841;28;20259;-66
2020/12/04 11:05:39;;;;;;;21.10;12.23;;;;;;;6.42;53.35;93984.59;5065918;28;20179;-68
2020/12/04 11:08:05;;;;;;;19.33;10.77;;;;;;;6.96;51.59;93995.56;5074482;28;20439;-68
2020/12/04 11:10:31;;;;;;;29.43;11.17;;;;;;;6.64;52.08;93984.31;5067835;28;20449;-67
2020/12/04 11:12:56;;;;;;;20.67;12.00;;;;;;;6.78;52.48;93983.25;5074522;28;20566;-69
2020/12/04 11:15:22;;;;;;;19.60;11.10;;;;;;;6.21;53.30;93944.81;5072872;28;20452;-68
2020/12/04 11:17:48;;;;;;;20.27;12.07;;;;;;;6.36;53.54;93933.38;5056204;28;20792;-68
2020/12/04 11:20:17;;;;;;;23.83;12.03;;;;;;;6.76;52.36;93941.00;5063861;28;20182;-66
2020/12/04 11:22:43;;;;;;;24.40;13.10;;;;;;;7.06;50.99;93930.00;5070843;28;20424;-67
2020/12/04 11:25:09;;;;;;;20.80;11.77;;;;;;;7.32;50.84;93942.06;5043730;28;20955;-66
2020/12/04 11:27:41;;;;;;;27.70;12.63;;;;;;;7.41;50.55;93947.00;5077489;28;20198;-67
2020/12/04 11:30:07;;;;;;;20.30;11.90;;;;;;;7.20;51.87;93956.78;5076625;28;20460;-68